Essex Junction, VT

8:36 AM EDT on October 20, 2019 (GMT -0400)
Buttlers Corners | | Change Station

Elev 466 ft 44.49 °N, 73.08 °W | Updated 10 seconds ago

Mostly Cloudy
Mostly Cloudy
35.6 °F
Feels Like 36 °F
N
0
Wind Variable Wind from ESE
Gusts 1.1 mph

Today
High -- | Low -- °F
--% Chance of Precip.
Yesterday
High -- | Low -- °F
Precip. -- in
Pressure 30.04 in
Visibility 10.0 miles
Clouds Scattered Clouds 10000 ft
Scattered Clouds 15000 ft
Mostly Cloudy 25000 ft
Windchill 36 °F
Dew Point 34 °F
Humidity 93%
Rainfall 0.00 in
Snow Depth Not available.
7:13 AM 6:00 PM
Waning Gibbous, 61% visible
METAR KBTV 201154Z 00000KT 10SM SCT100 SCT150 BKN250 01/00 A3003 RMK AO2 SLP173 T00110000 10028 20011 55001
Pressure 30.04 in
Visibility 10.0 miles
Clouds Scattered Clouds 10000 ft
Scattered Clouds 15000 ft
Mostly Cloudy 25000 ft
Windchill 36 °F
Dew Point 34 °F
Humidity 93%
Rainfall 0.00 in
Snow Depth Not available.
7:13 AM 6:00 PM
Waning Gibbous, 61% visible
METAR KBTV 201154Z 00000KT 10SM SCT100 SCT150 BKN250 01/00 A3003 RMK AO2 SLP173 T00110000 10028 20011 55001

Get Severe Weather Alerts

Thanks for signing up!

Be on the lookout for a verification email in your inbox.

You'll start receiving the daily forecast at 6 AM.

×

10-Day Weather Forecast

Almanac

Astronomy

Oct. 20, 2019 Rise Set
Actual Time
Civil Twilight
Nautical Twilight
Astronomical Twilight
Moon
Length of Visible Light
Length of Day
Tomorrow will be .
, % of the Moon is Illuminated

Today's Extremes

State Highs State Lows

Community

WunderPhotos

Category 6

Welcome to Category 6. This is the collective home for Weather Underground's featured writeups by Dr. Jeff Masters (right), Bob Henson (left), Chris Burt, and other regular contributors.

Nearby

Air Quality

  Air Quality AQ Index Pollutant
Not available.

Snow Depth

Station Depth Elevation

Earthquake Activity

City Distance Mag. Time & Date
Minimum magnitude displayed is 2.5.

Coastal Water Temperatures

Place Temperature

Stations

Nearby Weather Stations

Station Location Temp. Windchill Dew Point Humidity Wind Precip. Elev Updated Type
                   

Watches & Warnings

There are currently no watches in effect.